Terminal Aerodrome Forecast
Issued by NWS

Home | Current Version | Previous Version | Text Only | Print | Product List | Glossary On
Versions: 1 2 3 4 5 6 7 8 9 10 11 12 13
000
FTAK31 PAJN 291700
TAFAWG
TAF
PAWG 291730Z 2918/3018 27007KT P6SM FEW090
     FM300300 VRB03KT P6SM FEW090
     FM300800 13005KT P6SM SCT090
     FM301600 32006KT P6SM FEW100
      AMD LTD TO CLD VIS AND WIND 3006/3015=

USA.gov is the U.S. government's official web portal to all federal, state and local government web resources and services.